sensor_id;sensor_type;location;lat;lon;timestamp;pressure;altitude;pressure_sealevel;temperature;humidity
9139;BME280;4604;48.616;9.548;2023-01-15T00:01:35;95811.72;;;11.42;72.95
9139;BME280;4604;48.616;9.548;2023-01-15T00:04:03;95810.63;;;11.28;73.45
9139;BME280;4604;48.616;9.548;2023-01-15T00:06:30;95813.97;;;11.22;73.30
9139;BME280;4604;48.616;9.548;2023-01-15T00:08:58;95806.03;;;11.13;73.52
9139;BME280;4604;48.616;9.548;2023-01-15T00:11:24;95790.50;;;11.19;72.02
9139;BME280;4604;48.616;9.548;2023-01-15T00:13:51;95793.97;;;11.27;70.22
9139;BME280;4604;48.616;9.548;2023-01-15T00:16:20;95790.81;;;11.32;70.56
9139;BME280;4604;48.616;9.548;2023-01-15T00:18:52;95786.03;;;11.27;70.37
9139;BME280;4604;48.616;9.548;2023-01-15T00:21:19;95790.31;;;11.28;70.36
9139;BME280;4604;48.616;9.548;2023-01-15T00:23:46;95784.25;;;11.51;69.36
9139;BME280;4604;48.616;9.548;2023-01-15T00:26:31;95767.13;;;11.47;69.56
9139;BME280;4604;48.616;9.548;2023-01-15T00:29:16;95770.75;;;11.46;69.62
9139;BME280;4604;48.616;9.548;2023-01-15T00:31:49;95757.72;;;11.44;69.25
9139;BME280;4604;48.616;9.548;2023-01-15T00:34:18;95734.75;;;11.45;68.69
9139;BME280;4604;48.616;9.548;2023-01-15T00:36:44;95751.13;;;11.40;68.51
9139;BME280;4604;48.616;9.548;2023-01-15T00:39:11;95741.97;;;11.51;68.66
9139;BME280;4604;48.616;9.548;2023-01-15T00:41:38;95732.03;;;11.61;67.65
9139;BME280;4604;48.616;9.548;2023-01-15T00:44:04;95726.25;;;11.57;66.92
9139;BME280;4604;48.616;9.548;2023-01-15T00:46:31;95736.00;;;11.57;67.58
9139;BME280;4604;48.616;9.548;2023-01-15T00:48:58;95739.97;;;11.61;66.83
9139;BME280;4604;48.616;9.548;2023-01-15T00:51:26;95732.84;;;11.62;66.69
9139;BME280;4604;48.616;9.548;2023-01-15T00:53:53;95707.41;;;11.61;66.53
9139;BME280;4604;48.616;9.548;2023-01-15T00:56:19;95729.09;;;11.56;65.87
9139;BME280;4604;48.616;9.548;2023-01-15T00:58:46;95732.06;;;11.53;66.24
9139;BME280;4604;48.616;9.548;2023-01-15T01:01:13;95722.81;;;11.57;65.55
9139;BME280;4604;48.616;9.548;2023-01-15T01:03:39;95709.53;;;11.42;66.50
9139;BME280;4604;48.616;9.548;2023-01-15T01:06:06;95723.97;;;11.54;66.13
9139;BME280;4604;48.616;9.548;2023-01-15T01:08:35;95702.53;;;11.49;65.54
9139;BME280;4604;48.616;9.548;2023-01-15T01:11:04;95698.88;;;11.50;65.48
9139;BME280;4604;48.616;9.548;2023-01-15T01:13:31;95714.81;;;11.42;65.86
9139;BME280;4604;48.616;9.548;2023-01-15T01:15:58;95713.47;;;11.46;66.53
9139;BME280;4604;48.616;9.548;2023-01-15T01:18:25;95713.78;;;11.43;67.10
9139;BME280;4604;48.616;9.548;2023-01-15T01:20:52;95696.84;;;11.38;68.14
9139;BME280;4604;48.616;9.548;2023-01-15T01:23:21;95694.91;;;11.31;70.56
9139;BME280;4604;48.616;9.548;2023-01-15T01:25:49;95707.31;;;11.23;71.29
9139;BME280;4604;48.616;9.548;2023-01-15T01:28:16;95694.16;;;11.14;71.99
9139;BME280;4604;48.616;9.548;2023-01-15T01:30:43;95679.00;;;11.08;72.36
9139;BME280;4604;48.616;9.548;2023-01-15T01:33:09;95674.44;;;11.02;73.00
9139;BME280;4604;48.616;9.548;2023-01-15T01:35:36;95684.78;;;11.04;73.01
9139;BME280;4604;48.616;9.548;2023-01-15T01:38:03;95659.44;;;10.95;73.75
9139;BME280;4604;48.616;9.548;2023-01-15T01:40:30;95675.81;;;10.90;73.43
9139;BME280;4604;48.616;9.548;2023-01-15T01:42:58;95667.56;;;10.85;74.23
9139;BME280;4604;48.616;9.548;2023-01-15T01:45:27;95656.50;;;10.89;73.49
9139;BME280;4604;48.616;9.548;2023-01-15T01:47:57;95652.56;;;10.85;74.65
9139;BME280;4604;48.616;9.548;2023-01-15T01:50:25;95666.94;;;10.83;75.90
9139;BME280;4604;48.616;9.548;2023-01-15T01:52:56;95661.00;;;10.81;75.61
9139;BME280;4604;48.616;9.548;2023-01-15T01:55:24;95656.69;;;10.88;75.61
9139;BME280;4604;48.616;9.548;2023-01-15T01:57:53;95671.03;;;10.85;75.29
9139;BME280;4604;48.616;9.548;2023-01-15T02:00:24;95655.22;;;10.85;75.57
9139;BME280;4604;48.616;9.548;2023-01-15T02:02:51;95652.72;;;10.84;75.84
9139;BME280;4604;48.616;9.548;2023-01-15T02:05:25;95652.88;;;10.90;75.71
9139;BME280;4604;48.616;9.548;2023-01-15T02:07:53;95652.06;;;10.90;76.07
9139;BME280;4604;48.616;9.548;2023-01-15T02:10:20;95646.13;;;10.88;75.75
9139;BME280;4604;48.616;9.548;2023-01-15T02:12:51;95647.63;;;10.82;76.75
9139;BME280;4604;48.616;9.548;2023-01-15T02:15:26;95648.41;;;10.91;76.03
9139;BME280;4604;48.616;9.548;2023-01-15T02:17:59;95640.13;;;10.94;75.97
9139;BME280;4604;48.616;9.548;2023-01-15T02:20:31;95630.44;;;10.86;76.16
9139;BME280;4604;48.616;9.548;2023-01-15T02:23:14;95642.41;;;10.97;76.70
9139;BME280;4604;48.616;9.548;2023-01-15T02:26:17;95642.00;;;10.85;77.27
9139;BME280;4604;48.616;9.548;2023-01-15T02:28:53;95633.75;;;10.88;77.69
9139;BME280;4604;48.616;9.548;2023-01-15T02:31:26;95624.09;;;11.04;78.15
9139;BME280;4604;48.616;9.548;2023-01-15T02:33:57;95621.16;;;10.99;78.40
9139;BME280;4604;48.616;9.548;2023-01-15T02:36:28;95606.31;;;10.98;78.41
9139;BME280;4604;48.616;9.548;2023-01-15T02:39:01;95625.19;;;11.09;78.44
9139;BME280;4604;48.616;9.548;2023-01-15T02:41:31;95623.34;;;11.18;78.85
9139;BME280;4604;48.616;9.548;2023-01-15T02:44:02;95607.75;;;11.31;78.11
9139;BME280;4604;48.616;9.548;2023-01-15T02:46:33;95611.44;;;11.22;78.81
9139;BME280;4604;48.616;9.548;2023-01-15T02:49:02;95619.00;;;11.25;78.46
9139;BME280;4604;48.616;9.548;2023-01-15T02:51:36;95620.97;;;11.23;79.53
9139;BME280;4604;48.616;9.548;2023-01-15T02:54:07;95613.94;;;11.16;81.46
9139;BME280;4604;48.616;9.548;2023-01-15T02:56:37;95617.16;;;11.03;82.99
9139;BME280;4604;48.616;9.548;2023-01-15T02:59:10;95614.88;;;11.23;81.88
9139;BME280;4604;48.616;9.548;2023-01-15T03:01:41;95605.13;;;11.23;81.72
9139;BME280;4604;48.616;9.548;2023-01-15T03:04:14;95611.94;;;11.41;81.35
9139;BME280;4604;48.616;9.548;2023-01-15T03:06:45;95600.84;;;11.45;81.06
9139;BME280;4604;48.616;9.548;2023-01-15T03:09:15;95604.59;;;11.51;80.30
9139;BME280;4604;48.616;9.548;2023-01-15T03:11:45;95599.22;;;11.44;81.17
9139;BME280;4604;48.616;9.548;2023-01-15T03:14:18;95598.94;;;11.39;82.12
9139;BME280;4604;48.616;9.548;2023-01-15T03:16:49;95584.97;;;11.30;82.65
9139;BME280;4604;48.616;9.548;2023-01-15T03:19:23;95594.88;;;11.51;81.29
9139;BME280;4604;48.616;9.548;2023-01-15T03:21:55;95588.75;;;11.51;81.02
9139;BME280;4604;48.616;9.548;2023-01-15T03:24:31;95589.72;;;11.35;82.40
9139;BME280;4604;48.616;9.548;2023-01-15T03:27:01;95588.25;;;11.32;82.63
9139;BME280;4604;48.616;9.548;2023-01-15T03:29:32;95585.19;;;11.44;82.77
9139;BME280;4604;48.616;9.548;2023-01-15T03:32:01;95573.53;;;11.53;81.84
9139;BME280;4604;48.616;9.548;2023-01-15T03:34:33;95576.19;;;11.53;85.23
9139;BME280;4604;48.616;9.548;2023-01-15T03:37:02;95589.75;;;11.50;87.57
9139;BME280;4604;48.616;9.548;2023-01-15T03:39:29;95581.63;;;11.37;89.51
9139;BME280;4604;48.616;9.548;2023-01-15T03:42:05;95590.25;;;11.30;89.16
9139;BME280;4604;48.616;9.548;2023-01-15T03:44:40;95592.88;;;11.30;89.95
9139;BME280;4604;48.616;9.548;2023-01-15T03:47:19;95599.72;;;11.17;90.86
9139;BME280;4604;48.616;9.548;2023-01-15T03:49:55;95596.03;;;11.26;91.21
9139;BME280;4604;48.616;9.548;2023-01-15T03:52:29;95586.50;;;11.25;90.90
9139;BME280;4604;48.616;9.548;2023-01-15T03:55:09;95595.09;;;11.19;90.99
9139;BME280;4604;48.616;9.548;2023-01-15T03:57:39;95586.63;;;11.31;90.54
9139;BME280;4604;48.616;9.548;2023-01-15T04:00:13;95580.41;;;11.24;90.91
9139;BME280;4604;48.616;9.548;2023-01-15T04:02:42;95599.34;;;11.28;90.88
9139;BME280;4604;48.616;9.548;2023-01-15T04:05:10;95565.53;;;11.23;91.67
9139;BME280;4604;48.616;9.548;2023-01-15T04:07:37;95569.63;;;11.26;91.82
9139;BME280;4604;48.616;9.548;2023-01-15T04:10:07;95551.25;;;11.09;94.13
9139;BME280;4604;48.616;9.548;2023-01-15T04:12:34;95571.41;;;11.10;96.02
9139;BME280;4604;48.616;9.548;2023-01-15T04:15:01;95577.44;;;10.96;97.89
9139;BME280;4604;48.616;9.548;2023-01-15T04:17:29;95589.94;;;11.02;98.17
9139;BME280;4604;48.616;9.548;2023-01-15T04:19:55;95556.78;;;11.00;98.85
9139;BME280;4604;48.616;9.548;2023-01-15T04:22:22;95573.34;;;10.93;98.21
9139;BME280;4604;48.616;9.548;2023-01-15T04:24:49;95561.22;;;11.07;98.10
9139;BME280;4604;48.616;9.548;2023-01-15T04:27:15;95566.59;;;11.14;97.99
9139;BME280;4604;48.616;9.548;2023-01-15T04:29:42;95542.19;;;11.12;97.86
9139;BME280;4604;48.616;9.548;2023-01-15T04:32:09;95540.47;;;11.19;96.43
9139;BME280;4604;48.616;9.548;2023-01-15T04:34:37;95549.22;;;11.20;95.27
9139;BME280;4604;48.616;9.548;2023-01-15T04:37:03;95521.00;;;11.20;95.94
9139;BME280;4604;48.616;9.548;2023-01-15T04:39:30;95524.25;;;11.07;95.24
9139;BME280;4604;48.616;9.548;2023-01-15T04:41:57;95503.88;;;11.16;94.46
9139;BME280;4604;48.616;9.548;2023-01-15T04:44:41;95519.06;;;11.14;95.73
9139;BME280;4604;48.616;9.548;2023-01-15T04:47:08;95526.94;;;11.22;94.23
9139;BME280;4604;48.616;9.548;2023-01-15T04:49:35;95536.47;;;11.23;95.38
9139;BME280;4604;48.616;9.548;2023-01-15T04:52:03;95517.94;;;11.31;93.98
9139;BME280;4604;48.616;9.548;2023-01-15T04:54:30;95517.19;;;11.23;92.89
9139;BME280;4604;48.616;9.548;2023-01-15T04:56:56;95506.13;;;11.19;92.57
9139;BME280;4604;48.616;9.548;2023-01-15T04:59:25;95535.50;;;11.24;91.05
9139;BME280;4604;48.616;9.548;2023-01-15T05:01:52;95513.03;;;11.43;89.94
9139;BME280;4604;48.616;9.548;2023-01-15T05:04:19;95511.69;;;11.62;88.79
9139;BME280;4604;48.616;9.548;2023-01-15T05:06:45;95517.06;;;11.54;88.36
9139;BME280;4604;48.616;9.548;2023-01-15T05:09:13;95519.47;;;11.64;86.10
9139;BME280;4604;48.616;9.548;2023-01-15T05:11:40;95525.66;;;11.71;85.24
9139;BME280;4604;48.616;9.548;2023-01-15T05:14:07;95494.31;;;11.83;84.34
9139;BME280;4604;48.616;9.548;2023-01-15T05:16:34;95511.47;;;11.87;84.35
9139;BME280;4604;48.616;9.548;2023-01-15T05:19:03;95502.81;;;11.93;83.57
9139;BME280;4604;48.616;9.548;2023-01-15T05:21:32;95512.75;;;11.91;82.96
9139;BME280;4604;48.616;9.548;2023-01-15T05:24:01;95517.56;;;12.02;83.47
9139;BME280;4604;48.616;9.548;2023-01-15T05:26:31;95516.94;;;11.85;82.97
9139;BME280;4604;48.616;9.548;2023-01-15T05:28:59;95504.09;;;11.97;82.70
9139;BME280;4604;48.616;9.548;2023-01-15T05:31:27;95520.22;;;12.02;81.26
9139;BME280;4604;48.616;9.548;2023-01-15T05:33:55;95487.47;;;12.18;80.63
9139;BME280;4604;48.616;9.548;2023-01-15T05:36:23;95508.53;;;12.26;79.44
9139;BME280;4604;48.616;9.548;2023-01-15T05:38:50;95515.50;;;12.12;80.41
9139;BME280;4604;48.616;9.548;2023-01-15T05:41:19;95519.66;;;12.07;81.19
9139;BME280;4604;48.616;9.548;2023-01-15T05:44:06;95519.94;;;11.97;81.13
9139;BME280;4604;48.616;9.548;2023-01-15T05:46:35;95509.94;;;12.07;80.70
9139;BME280;4604;48.616;9.548;2023-01-15T05:49:03;95523.16;;;12.07;81.47
9139;BME280;4604;48.616;9.548;2023-01-15T05:51:30;95527.53;;;12.00;81.44
9139;BME280;4604;48.616;9.548;2023-01-15T05:53:57;95533.91;;;12.06;81.66
9139;BME280;4604;48.616;9.548;2023-01-15T05:56:23;95519.50;;;12.08;81.20
9139;BME280;4604;48.616;9.548;2023-01-15T05:58:50;95517.28;;;12.12;82.13
9139;BME280;4604;48.616;9.548;2023-01-15T06:01:19;95516.69;;;12.10;82.05
9139;BME280;4604;48.616;9.548;2023-01-15T06:03:46;95534.91;;;12.05;82.70
9139;BME280;4604;48.616;9.548;2023-01-15T06:06:15;95522.31;;;12.07;83.32
9139;BME280;4604;48.616;9.548;2023-01-15T06:08:42;95512.19;;;12.10;81.66
9139;BME280;4604;48.616;9.548;2023-01-15T06:11:09;95530.16;;;12.15;82.56
9139;BME280;4604;48.616;9.548;2023-01-15T06:13:37;95524.25;;;11.98;85.93
9139;BME280;4604;48.616;9.548;2023-01-15T06:16:04;95531.72;;;11.94;87.75
9139;BME280;4604;48.616;9.548;2023-01-15T06:18:32;95540.13;;;11.75;90.09
9139;BME280;4604;48.616;9.548;2023-01-15T06:21:02;95547.53;;;11.79;89.87
9139;BME280;4604;48.616;9.548;2023-01-15T06:23:29;95606.47;;;11.65;92.81
9139;BME280;4604;48.616;9.548;2023-01-15T06:25:59;95600.03;;;10.20;100.00
9139;BME280;4604;48.616;9.548;2023-01-15T06:28:26;95631.41;;;9.33;100.00
9139;BME280;4604;48.616;9.548;2023-01-15T06:30:52;95613.03;;;8.66;100.00
9139;BME280;4604;48.616;9.548;2023-01-15T06:33:19;95617.13;;;8.60;100.00
9139;BME280;4604;48.616;9.548;2023-01-15T06:35:47;95629.47;;;8.68;100.00
9139;BME280;4604;48.616;9.548;2023-01-15T06:38:14;95626.75;;;8.43;100.00
9139;BME280;4604;48.616;9.548;2023-01-15T06:40:41;95641.44;;;8.28;100.00
9139;BME280;4604;48.616;9.548;2023-01-15T06:43:08;95658.94;;;8.19;100.00
9139;BME280;4604;48.616;9.548;2023-01-15T06:45:53;95674.94;;;8.00;100.00
9139;BME280;4604;48.616;9.548;2023-01-15T06:48:37;95654.84;;;7.90;100.00
9139;BME280;4604;48.616;9.548;2023-01-15T06:51:05;95659.16;;;8.00;100.00
9139;BME280;4604;48.616;9.548;2023-01-15T06:53:31;95682.09;;;7.89;100.00
9139;BME280;4604;48.616;9.548;2023-01-15T06:55:59;95684.78;;;7.98;100.00
9139;BME280;4604;48.616;9.548;2023-01-15T06:58:26;95690.31;;;7.94;100.00
9139;BME280;4604;48.616;9.548;2023-01-15T07:00:53;95697.56;;;7.92;100.00
9139;BME280;4604;48.616;9.548;2023-01-15T07:03:20;95701.38;;;7.80;100.00
9139;BME280;4604;48.616;9.548;2023-01-15T07:05:47;95703.34;;;7.78;100.00
9139;BME280;4604;48.616;9.548;2023-01-15T07:08:15;95702.47;;;7.69;100.00
9139;BME280;4604;48.616;9.548;2023-01-15T07:10:42;95713.94;;;7.50;100.00
9139;BME280;4604;48.616;9.548;2023-01-15T07:13:09;95730.00;;;7.47;100.00
9139;BME280;4604;48.616;9.548;2023-01-15T07:15:37;95725.25;;;7.33;100.00
9139;BME280;4604;48.616;9.548;2023-01-15T07:18:04;95727.13;;;7.41;100.00
9139;BME280;4604;48.616;9.548;2023-01-15T07:20:30;95727.63;;;7.26;100.00
9139;BME280;4604;48.616;9.548;2023-01-15T07:22:57;95742.13;;;7.31;100.00
9139;BME280;4604;48.616;9.548;2023-01-15T07:25:25;95749.25;;;7.20;100.00
9139;BME280;4604;48.616;9.548;2023-01-15T07:27:51;95767.66;;;7.11;100.00
9139;BME280;4604;48.616;9.548;2023-01-15T07:30:18;95784.22;;;7.11;100.00
9139;BME280;4604;48.616;9.548;2023-01-15T07:32:45;95772.13;;;7.28;100.00
9139;BME280;4604;48.616;9.548;2023-01-15T07:35:12;95782.78;;;7.17;100.00
9139;BME280;4604;48.616;9.548;2023-01-15T07:37:38;95789.72;;;7.18;100.00
9139;BME280;4604;48.616;9.548;2023-01-15T07:40:06;95788.25;;;7.05;100.00
9139;BME280;4604;48.616;9.548;2023-01-15T07:42:34;95813.75;;;6.85;100.00
9139;BME280;4604;48.616;9.548;2023-01-15T07:45:18;95830.28;;;6.96;100.00
9139;BME280;4604;48.616;9.548;2023-01-15T07:48:04;95821.13;;;6.62;100.00
9139;BME280;4604;48.616;9.548;2023-01-15T07:50:48;95828.28;;;6.60;100.00
9139;BME280;4604;48.616;9.548;2023-01-15T07:53:14;95828.97;;;6.62;100.00
9139;BME280;4604;48.616;9.548;2023-01-15T07:55:41;95844.59;;;6.54;100.00
9139;BME280;4604;48.616;9.548;2023-01-15T07:58:09;95852.06;;;6.49;100.00
9139;BME280;4604;48.616;9.548;2023-01-15T08:00:35;95875.78;;;6.38;100.00
9139;BME280;4604;48.616;9.548;2023-01-15T08:03:02;95870.44;;;6.20;100.00
9139;BME280;4604;48.616;9.548;2023-01-15T08:05:30;95859.94;;;6.10;100.00
9139;BME280;4604;48.616;9.548;2023-01-15T08:07:57;95894.41;;;6.15;100.00
9139;BME280;4604;48.616;9.548;2023-01-15T08:10:24;95885.16;;;6.02;100.00
9139;BME280;4604;48.616;9.548;2023-01-15T08:12:50;95888.28;;;5.86;100.00
9139;BME280;4604;48.616;9.548;2023-01-15T08:15:39;95884.75;;;5.96;100.00
9139;BME280;4604;48.616;9.548;2023-01-15T08:18:08;95885.81;;;5.84;100.00
9139;BME280;4604;48.616;9.548;2023-01-15T08:20:35;95889.66;;;5.80;100.00
9139;BME280;4604;48.616;9.548;2023-01-15T08:23:01;95900.53;;;5.85;100.00
9139;BME280;4604;48.616;9.548;2023-01-15T08:25:28;95905.94;;;5.93;100.00
9139;BME280;4604;48.616;9.548;2023-01-15T08:27:58;95892.97;;;5.82;100.00
9139;BME280;4604;48.616;9.548;2023-01-15T08:30:25;95902.63;;;5.91;100.00
9139;BME280;4604;48.616;9.548;2023-01-15T08:32:58;95907.22;;;5.99;100.00
9139;BME280;4604;48.616;9.548;2023-01-15T08:35:25;95899.88;;;5.93;100.00
9139;BME280;4604;48.616;9.548;2023-01-15T08:37:51;95904.88;;;5.96;100.00
9139;BME280;4604;48.616;9.548;2023-01-15T08:40:18;95916.28;;;5.95;100.00
9139;BME280;4604;48.616;9.548;2023-01-15T08:42:45;95926.66;;;6.06;100.00
9139;BME280;4604;48.616;9.548;2023-01-15T08:45:11;95931.06;;;5.96;100.00
9139;BME280;4604;48.616;9.548;2023-01-15T08:47:39;95937.75;;;5.89;100.00
9139;BME280;4604;48.616;9.548;2023-01-15T08:50:08;95918.22;;;5.93;100.00
9139;BME280;4604;48.616;9.548;2023-01-15T08:52:35;95936.66;;;5.91;100.00
9139;BME280;4604;48.616;9.548;2023-01-15T08:55:03;95935.97;;;5.89;100.00
9139;BME280;4604;48.616;9.548;2023-01-15T08:57:30;95934.56;;;5.85;100.00
9139;BME280;4604;48.616;9.548;2023-01-15T08:59:57;95944.88;;;5.67;100.00
9139;BME280;4604;48.616;9.548;2023-01-15T09:02:23;95940.75;;;5.74;100.00
9139;BME280;4604;48.616;9.548;2023-01-15T09:04:50;95968.50;;;5.87;100.00
9139;BME280;4604;48.616;9.548;2023-01-15T09:07:19;95957.75;;;5.90;100.00
9139;BME280;4604;48.616;9.548;2023-01-15T09:09:45;95954.44;;;5.88;100.00
9139;BME280;4604;48.616;9.548;2023-01-15T09:12:12;95967.63;;;5.76;100.00
9139;BME280;4604;48.616;9.548;2023-01-15T09:14:39;95966.69;;;5.87;100.00
9139;BME280;4604;48.616;9.548;2023-01-15T09:17:06;95971.06;;;5.77;100.00
9139;BME280;4604;48.616;9.548;2023-01-15T09:19:33;95963.09;;;5.78;100.00
9139;BME280;4604;48.616;9.548;2023-01-15T09:21:59;95964.44;;;5.73;100.00
9139;BME280;4604;48.616;9.548;2023-01-15T09:24:27;95963.91;;;5.79;100.00
9139;BME280;4604;48.616;9.548;2023-01-15T09:26:54;95962.13;;;5.79;100.00
9139;BME280;4604;48.616;9.548;2023-01-15T09:29:21;95975.66;;;5.85;100.00
9139;BME280;4604;48.616;9.548;2023-01-15T09:31:48;95978.22;;;5.75;100.00
9139;BME280;4604;48.616;9.548;2023-01-15T09:34:15;95997.38;;;5.75;100.00
9139;BME280;4604;48.616;9.548;2023-01-15T09:36:41;96003.31;;;5.77;100.00
9139;BME280;4604;48.616;9.548;2023-01-15T09:39:09;96006.31;;;5.73;100.00
9139;BME280;4604;48.616;9.548;2023-01-15T09:41:51;96002.91;;;5.82;100.00
9139;BME280;4604;48.616;9.548;2023-01-15T09:44:38;96026.50;;;5.92;100.00
9139;BME280;4604;48.616;9.548;2023-01-15T09:47:12;96025.09;;;5.78;100.00
9139;BME280;4604;48.616;9.548;2023-01-15T09:49:55;96020.38;;;5.72;100.00
9139;BME280;4604;48.616;9.548;2023-01-15T09:52:35;96008.78;;;5.65;100.00
9139;BME280;4604;48.616;9.548;2023-01-15T09:55:12;96021.53;;;5.79;100.00
9139;BME280;4604;48.616;9.548;2023-01-15T09:57:42;96007.28;;;5.72;100.00
9139;BME280;4604;48.616;9.548;2023-01-15T10:00:16;96007.38;;;5.91;100.00
9139;BME280;4604;48.616;9.548;2023-01-15T10:02:46;96004.09;;;5.99;100.00
9139;BME280;4604;48.616;9.548;2023-01-15T10:05:18;96004.41;;;6.06;100.00
9139;BME280;4604;48.616;9.548;2023-01-15T10:07:53;95995.56;;;6.07;100.00
9139;BME280;4604;48.616;9.548;2023-01-15T10:10:26;96008.44;;;6.19;100.00
9139;BME280;4604;48.616;9.548;2023-01-15T10:13:05;96011.47;;;6.15;100.00
9139;BME280;4604;48.616;9.548;2023-01-15T10:15:35;96014.50;;;6.20;100.00
9139;BME280;4604;48.616;9.548;2023-01-15T10:18:05;96015.06;;;6.24;100.00
9139;BME280;4604;48.616;9.548;2023-01-15T10:20:42;96013.94;;;6.26;100.00
9139;BME280;4604;48.616;9.548;2023-01-15T10:23:33;96021.34;;;6.02;100.00
9139;BME280;4604;48.616;9.548;2023-01-15T10:26:04;96016.88;;;5.92;100.00
9139;BME280;4604;48.616;9.548;2023-01-15T10:28:49;96023.31;;;5.78;100.00
9139;BME280;4604;48.616;9.548;2023-01-15T10:31:20;96032.84;;;5.89;100.00
9139;BME280;4604;48.616;9.548;2023-01-15T10:33:58;96042.97;;;5.73;100.00
9139;BME280;4604;48.616;9.548;2023-01-15T10:36:33;96043.06;;;5.62;100.00
9139;BME280;4604;48.616;9.548;2023-01-15T10:39:10;96055.13;;;5.74;100.00
9139;BME280;4604;48.616;9.548;2023-01-15T10:41:51;96065.97;;;5.69;100.00
9139;BME280;4604;48.616;9.548;2023-01-15T10:44:31;96058.56;;;5.74;100.00
9139;BME280;4604;48.616;9.548;2023-01-15T10:47:06;96061.28;;;5.73;100.00
9139;BME280;4604;48.616;9.548;2023-01-15T10:49:37;96049.97;;;5.63;100.00
9139;BME280;4604;48.616;9.548;2023-01-15T10:52:14;96059.72;;;5.61;100.00
9139;BME280;4604;48.616;9.548;2023-01-15T10:54:47;96055.13;;;5.74;100.00
9139;BME280;4604;48.616;9.548;2023-01-15T10:57:19;96067.03;;;5.57;100.00
9139;BME280;4604;48.616;9.548;2023-01-15T10:59:56;96059.22;;;5.46;100.00
9139;BME280;4604;48.616;9.548;2023-01-15T11:02:27;96044.88;;;5.40;100.00
9139;BME280;4604;48.616;9.548;2023-01-15T11:04:55;96047.25;;;5.43;100.00
9139;BME280;4604;48.616;9.548;2023-01-15T11:07:26;96043.91;;;5.41;100.00
9139;BME280;4604;48.616;9.548;2023-01-15T11:09:57;96062.88;;;5.33;100.00
9139;BME280;4604;48.616;9.548;2023-01-15T11:12:28;96049.22;;;5.09;100.00
9139;BME280;4604;48.616;9.548;2023-01-15T11:15:16;96082.81;;;5.25;100.00
9139;BME280;4604;48.616;9.548;2023-01-15T11:18:11;96091.78;;;5.11;100.00
9139;BME280;4604;48.616;9.548;2023-01-15T11:20:57;96102.16;;;5.01;100.00
9139;BME280;4604;48.616;9.548;2023-01-15T11:23:23;96084.81;;;5.00;100.00
9139;BME280;4604;48.616;9.548;2023-01-15T11:25:52;96110.38;;;4.97;100.00
9139;BME280;4604;48.616;9.548;2023-01-15T11:28:31;96115.25;;;4.90;100.00
9139;BME280;4604;48.616;9.548;2023-01-15T11:31:01;96112.06;;;4.98;100.00
9139;BME280;4604;48.616;9.548;2023-01-15T11:33:29;96108.88;;;4.83;100.00
9139;BME280;4604;48.616;9.548;2023-01-15T11:35:58;96121.13;;;4.82;100.00
9139;BME280;4604;48.616;9.548;2023-01-15T11:38:26;96117.78;;;4.80;100.00
9139;BME280;4604;48.616;9.548;2023-01-15T11:40:55;96105.69;;;4.79;100.00
9139;BME280;4604;48.616;9.548;2023-01-15T11:43:25;96108.03;;;4.82;100.00
9139;BME280;4604;48.616;9.548;2023-01-15T11:46:29;96125.72;;;4.90;100.00
9139;BME280;4604;48.616;9.548;2023-01-15T11:49:15;96134.53;;;4.89;100.00
9139;BME280;4604;48.616;9.548;2023-01-15T11:52:00;96148.59;;;4.77;100.00
9139;BME280;4604;48.616;9.548;2023-01-15T11:54:29;96174.50;;;4.46;100.00
9139;BME280;4604;48.616;9.548;2023-01-15T11:56:57;96174.28;;;3.93;100.00
9139;BME280;4604;48.616;9.548;2023-01-15T11:59:24;96188.13;;;3.71;100.00
9139;BME280;4604;48.616;9.548;2023-01-15T12:01:54;96183.94;;;3.57;100.00
9139;BME280;4604;48.616;9.548;2023-01-15T12:04:32;96201.88;;;3.61;100.00
9139;BME280;4604;48.616;9.548;2023-01-15T12:07:01;96200.94;;;3.74;100.00
9139;BME280;4604;48.616;9.548;2023-01-15T12:09:39;96198.34;;;3.74;100.00
9139;BME280;4604;48.616;9.548;2023-01-15T12:12:18;96221.47;;;3.78;100.00
9139;BME280;4604;48.616;9.548;2023-01-15T12:18:00;96216.13;;;3.69;100.00
9139;BME280;4604;48.616;9.548;2023-01-15T12:20:40;96224.53;;;3.61;100.00
9139;BME280;4604;48.616;9.548;2023-01-15T12:23:29;96216.16;;;3.56;100.00
9139;BME280;4604;48.616;9.548;2023-01-15T12:26:04;96212.06;;;3.64;100.00
9139;BME280;4604;48.616;9.548;2023-01-15T12:28:36;96225.84;;;3.67;100.00
9139;BME280;4604;48.616;9.548;2023-01-15T12:31:09;96232.25;;;3.74;100.00
9139;BME280;4604;48.616;9.548;2023-01-15T12:33:42;96225.69;;;3.68;100.00
9139;BME280;4604;48.616;9.548;2023-01-15T12:36:15;96236.06;;;3.81;100.00
9139;BME280;4604;48.616;9.548;2023-01-15T12:38:49;96236.28;;;3.78;100.00
9139;BME280;4604;48.616;9.548;2023-01-15T12:41:21;96244.41;;;3.86;100.00
9139;BME280;4604;48.616;9.548;2023-01-15T12:43:52;96239.41;;;3.94;100.00
9139;BME280;4604;48.616;9.548;2023-01-15T12:46:38;96238.69;;;3.81;100.00
9139;BME280;4604;48.616;9.548;2023-01-15T12:49:18;96252.22;;;3.86;100.00
9139;BME280;4604;48.616;9.548;2023-01-15T12:51:50;96247.72;;;3.88;100.00
9139;BME280;4604;48.616;9.548;2023-01-15T12:54:23;96237.72;;;3.82;100.00
9139;BME280;4604;48.616;9.548;2023-01-15T12:56:58;96244.63;;;3.94;100.00
9139;BME280;4604;48.616;9.548;2023-01-15T12:59:29;96235.63;;;4.10;100.00
9139;BME280;4604;48.616;9.548;2023-01-15T13:02:08;96239.78;;;4.01;100.00
9139;BME280;4604;48.616;9.548;2023-01-15T13:04:43;96209.16;;;3.92;100.00
9139;BME280;4604;48.616;9.548;2023-01-15T13:07:17;96227.81;;;4.10;100.00
9139;BME280;4604;48.616;9.548;2023-01-15T13:09:51;96238.75;;;4.15;100.00
9139;BME280;4604;48.616;9.548;2023-01-15T13:12:19;96241.25;;;4.39;100.00
9139;BME280;4604;48.616;9.548;2023-01-15T13:14:46;96240.44;;;4.38;100.00
9139;BME280;4604;48.616;9.548;2023-01-15T13:17:20;96248.97;;;4.29;98.74
9139;BME280;4604;48.616;9.548;2023-01-15T13:20:02;96244.94;;;4.36;100.00
9139;BME280;4604;48.616;9.548;2023-01-15T13:22:32;96249.56;;;4.33;97.21
9139;BME280;4604;48.616;9.548;2023-01-15T13:25:22;96248.00;;;4.41;98.54
9139;BME280;4604;48.616;9.548;2023-01-15T13:28:01;96259.06;;;4.22;96.32
9139;BME280;4604;48.616;9.548;2023-01-15T13:30:40;96268.56;;;4.23;95.75
9139;BME280;4604;48.616;9.548;2023-01-15T13:33:17;96257.28;;;4.23;97.34
9139;BME280;4604;48.616;9.548;2023-01-15T13:35:50;96276.88;;;4.28;96.54
9139;BME280;4604;48.616;9.548;2023-01-15T13:38:21;96257.38;;;4.21;95.91
9139;BME280;4604;48.616;9.548;2023-01-15T13:40:52;96272.50;;;4.40;93.81
9139;BME280;4604;48.616;9.548;2023-01-15T13:43:28;96272.00;;;4.35;91.14
9139;BME280;4604;48.616;9.548;2023-01-15T13:45:56;96269.16;;;4.27;94.37